METAR Data
IDs: Format: Raw Decoded Include TAF

Data at: 1839 UTC 16 Oct 2021

KTKI 161753Z 36007G16KT 320V040 10SM CLR 22/01 A3038 RMK AO2 SLP288 T02170011 10217 20078 58004
KTKI 161653Z 33011G16KT 10SM CLR 21/02 A3039 RMK AO2 SLP294 T02060022
KTKI 161553Z VRB06KT 10SM CLR 19/06 A3039 RMK AO2 SLP294 T01890056
KTKI 161453Z 01005KT 10SM CLR 15/08 A3039 RMK AO2 SLP294 T01500078 53020
KTKI 161353Z 35003KT 10SM CLR 12/08 A3036 RMK AO2 SLP287 T01220078
KTKI 161253Z 00000KT 10SM CLR 09/06 A3034 RMK AO2 SLP281 T00890061
KTKI 161153Z 35003KT 10SM CLR 08/06 A3033 RMK AO2 SLP275 T00830061 10133 20083 53010
KTKI 161053Z 34005KT 10SM CLR 09/06 A3031 RMK AO2 SLP268 T00940056
KTKI 160953Z AUTO 33006KT 10SM CLR 11/06 A3030 RMK AO2 SLP265 T01060061
KTKI 160853Z AUTO 34006KT 10SM CLR 11/07 A3030 RMK AO2 SLP262 T01110067 50010
KTKI 160753Z AUTO 32003KT 10SM CLR 12/07 A3030 RMK AO2 SLP262 T01170067
KTKI 160653Z AUTO 34007KT 10SM CLR 13/07 A3028 RMK AO2 SLP257 T01280072
KTKI 160553Z AUTO 34008KT 10SM CLR 13/07 A3027 RMK AO2 SLP251 T01330072 10200 20122 402560122 51018
KTKI 160453Z AUTO 34006KT 10SM CLR 14/07 A3026 RMK AO2 SLP246 T01390067
KTKI 160353Z AUTO 34006KT 10SM CLR 14/07 A3024 RMK AO2 SLP241 T01440067
KTKI 160253Z AUTO 34006KT 10SM CLR 16/07 A3021 RMK AO2 SLP232 T01560067 51029
KTKI 160153Z 35007KT 10SM CLR 17/07 A3019 RMK AO2 SLP223 T01720067
KTKI 160053Z 34008KT 10SM CLR 19/07 A3015 RMK AO2 SLP211 T01890072
KTKI 152353Z 35008KT 10SM CLR 20/07 A3013 RMK AO2 SLP201 T02000072 10244 20200 53024
KTKI 152253Z 35018G24KT 10SM CLR 22/08 A3010 RMK AO2 SLP190 T02220078
KTKI 152153Z 35019G26KT 10SM CLR 23/09 A3007 RMK AO2 PK WND 34027/2117 SLP181 T02330094
KTKI 152053Z 34015G23KT 10SM CLR 24/12 A3005 RMK AO2 PK WND 36026/2005 SLP176 T02390117 53014
KTKI 151953Z 35018G27KT 10SM FEW026 BKN034 24/14 A3004 RMK AO2 PK WND 35027/1945 SLP168 T02390139
KTKI 151853Z 34016G23KT 10SM BKN016 OVC021 22/16 A3003 RMK AO2 PK WND 32026/1828 SLP166 T02170161
KTKI 151753Z 33012KT 10SM BKN019 BKN032 OVC039 23/18 A3001 RMK AO2 PK WND 33027/1709 SLP161 T02280178 10256 20211 51019
KTKI 151653Z 33015G26KT 10SM SCT017 BKN026 OVC034 23/19 A2999 RMK AO2 PK WND 33026/1644 SLP152 T02330189
KTKI 151553Z 29013G18KT 10SM SCT012 SCT026 OVC031 24/20 A2996 RMK AO2 SLP142 T02440200
KTKI 151455Z 24008KT 10SM BKN012 OVC026 24/21 A2993 RMK AO2 T02390211
KTKI 151453Z 25008KT 10SM OVC008 23/21 A2993 RMK AO2 SLP134 T02330206 53024
KTKI 151405Z 21005KT 10SM OVC006 23/21 A2991 RMK AO2 T02280211
KTKI 151353Z 21006KT 10SM OVC004 22/21 A2991 RMK AO2 SLP126 T02220206
KTKI 151253Z 20004KT 9SM OVC003 22/21 A2988 RMK AO2 SLP115 T02170206 $
KTKI 151153Z 18006KT 10SM BKN006 21/20 A2986 RMK AO2 SLP109 T02110200 10228 20200 53009 $
KTKI 151103Z 18006KT 10SM FEW006 21/20 A2985 RMK AO2 T02110200 $
KTKI 151053Z 17006KT 10SM CLR 21/20 A2985 RMK AO2 SLP104 T02110200 $
KTKI 150953Z AUTO 17004KT 10SM CLR 21/19 A2984 RMK AO2 SLP101 T02060194
KTKI 150853Z AUTO 18004KT 10SM CLR 21/20 A2984 RMK AO2 SLP099 T02060200 53001
KTKI 150753Z AUTO 15006KT 10SM CLR 22/21 A2983 RMK AO2 SLP097 T02170206
KTKI 150721Z AUTO 19005KT 10SM FEW009 22/21 A2984 RMK AO2 T02220206
KTKI 150653Z AUTO 19005KT 10SM CLR 22/21 A2983 RMK AO2 SLP099 T02220206